Richmond, RI

10:21 PM EDT on September 20, 2014 (GMT -0400)
Arcadia | Change Station
CLOSE
Current Station
Personal Weather Station
Location: Hope Valley, RI
Elevation: 175 ft
Nearby Weather Stations

Elev 175 ft 41.54 °N, 71.69 °W | Updated 11 seconds ago

Partly Cloudy
Partly Cloudy
54.4 °F
Feels Like 54.4 °F
N
0.0
Wind Variable Wind from NNE
Gusts 0.0 mph

Today
High -- | Low -- °F
--% Chance of Precip.
Yesterday
High -- | Low -- °F
Precip. -- in
6:32 AM 6:47 PM
Waning Crescent, 9% visible
Pressure 30.14 in
Visibility 10.0 miles
Clouds Overcast 7500 ft
Dew Point 53 °F
Humidity 96%
Rainfall 0.00 in
Snow Depth Not available.
UV 0 out of 12
Pollen 2.70 out of 12
Ozone Good
PM2.5 Good
Flu Activity Not available.
METAR KWST 210153Z AUTO 16003KT 10SM OVC075 19/17 A3014 RMK AO2 SLP206 T01890167

More Conditions Fewer Conditions

Pressure 30.14 in
Visibility 10.0 miles
Clouds Overcast 7500 ft
Dew Point 53 °F
Humidity 96%
Rainfall 0.00 in
Snow Depth Not available.
UV 0 out of 12
Pollen 2.70 out of 12
Ozone Good
PM2.5 Good
Flu Activity Not available.
METAR KWST 210153Z AUTO 16003KT 10SM OVC075 19/17 A3014 RMK AO2 SLP206 T01890167

More Conditions Fewer Conditions

10-Day Weather Forecast

Almanac

Astronomy

Sep. 20, 2014 Rise Set
Actual Time 6:32 AM EDT 6:47 PM EDT
Civil Twilight 6:04 AM EDT 7:15 PM EDT
Nautical Twilight 5:31 AM EDT 7:47 PM EDT
Astronomical Twilight 4:58 AM EDT 8:20 PM EDT
Moon 3:06 AM EDT (9/20) 4:51 PM EDT (9/20)
Length of Visible Light 13h 10m
Length of Day
12h 15m
Tomorrow will be 2m 45s shorter.
Waning Crescent, 9% of the Moon is Illuminated
Today
Waning Crescent
Sep 24
New
Oct 1
First Quarter
Oct 8
Full
Oct 15
Last Quarter

Today's Extremes

State Highs State Lows

Community

WunderPhotos

Upload Photos

1,755,032 photos uploaded!

WunderBlogs® & News

Nearby

Air Quality

  Air Quality AQ Index Pollutant
Yesterday Good
OZONE
Yesterday Good
PM2.5
Current Good
OZONE
Current Good
PM2.5
Saturday Good
OZONE
Saturday Good
PM2.5
Sunday Good
OZONE
Sunday Good
PM2.5
Monday Good
OZONE
Monday Good
PM2.5
Tuesday Good
OZONE
Tuesday Good
PM2.5

Snow Depth

Station Depth Elevation
No new snow has been reported.

Earthquake Activity

City Distance Mag. Time & Date
No recent earthquake activity has been reported nearby.
Minimum magnitude displayed is 2.5.

Coastal Water Temperatures

Place Temperature
Newport, RI 66.9 °F
New London, CT 66.9 °F
Quonset Point, RI 68.0 °F

Nearby Weather Stations